sensor_id;sensor_type;location;lat;lon;timestamp;pressure;altitude;pressure_sealevel;temperature;humidity
76592;BME280;65481;47.600;19.682;2022-12-18T00:04:24;101628.44;;;-0.34;100.00
76592;BME280;65481;47.600;19.682;2022-12-18T00:09:24;101643.03;;;-0.33;100.00
76592;BME280;65481;47.600;19.682;2022-12-18T00:14:25;101646.44;;;-0.32;100.00
76592;BME280;65481;47.600;19.682;2022-12-18T00:19:26;101653.66;;;-0.36;100.00
76592;BME280;65481;47.600;19.682;2022-12-18T00:24:26;101657.91;;;-0.35;100.00
76592;BME280;65481;47.600;19.682;2022-12-18T00:29:27;101675.13;;;-0.34;100.00
76592;BME280;65481;47.600;19.682;2022-12-18T00:34:27;101685.72;;;-0.37;100.00
76592;BME280;65481;47.600;19.682;2022-12-18T00:39:28;101695.53;;;-0.40;99.65
76592;BME280;65481;47.600;19.682;2022-12-18T00:44:28;101694.44;;;-0.38;99.68
76592;BME280;65481;47.600;19.682;2022-12-18T00:49:29;101695.38;;;-0.39;99.53
76592;BME280;65481;47.600;19.682;2022-12-18T00:54:29;101707.78;;;-0.42;99.33
76592;BME280;65481;47.600;19.682;2022-12-18T00:59:30;101717.06;;;-0.40;99.39
76592;BME280;65481;47.600;19.682;2022-12-18T01:04:32;101718.03;;;-0.41;99.79
76592;BME280;65481;47.600;19.682;2022-12-18T01:09:33;101715.44;;;-0.41;99.59
76592;BME280;65481;47.600;19.682;2022-12-18T01:14:34;101717.06;;;-0.40;99.16
76592;BME280;65481;47.600;19.682;2022-12-18T01:19:35;101724.38;;;-0.45;98.95
76592;BME280;65481;47.600;19.682;2022-12-18T01:24:35;101725.81;;;-0.41;99.22
76592;BME280;65481;47.600;19.682;2022-12-18T01:29:36;101729.94;;;-0.38;98.71
76592;BME280;65481;47.600;19.682;2022-12-18T01:34:37;101736.66;;;-0.36;98.48
76592;BME280;65481;47.600;19.682;2022-12-18T01:39:37;101747.16;;;-0.37;98.31
76592;BME280;65481;47.600;19.682;2022-12-18T01:44:58;101747.84;;;-0.35;98.31
76592;BME280;65481;47.600;19.682;2022-12-18T01:50:03;101749.84;;;-0.39;98.48
76592;BME280;65481;47.600;19.682;2022-12-18T01:55:05;101768.50;;;-0.34;98.18
76592;BME280;65481;47.600;19.682;2022-12-18T02:00:20;101767.31;;;-0.29;98.13
76592;BME280;65481;47.600;19.682;2022-12-18T02:16:01;101790.41;;;-0.26;98.96
76592;BME280;65481;47.600;19.682;2022-12-18T02:21:18;101790.31;;;-0.25;99.41
76592;BME280;65481;47.600;19.682;2022-12-18T02:26:43;101798.91;;;-0.24;99.09
76592;BME280;65481;47.600;19.682;2022-12-18T02:31:50;101810.94;;;-0.23;99.26
76592;BME280;65481;47.600;19.682;2022-12-18T02:36:53;101811.06;;;-0.25;99.77
76592;BME280;65481;47.600;19.682;2022-12-18T02:41:55;101814.13;;;-0.31;99.64
76592;BME280;65481;47.600;19.682;2022-12-18T02:46:56;101818.50;;;-0.32;99.63
76592;BME280;65481;47.600;19.682;2022-12-18T02:52:17;101824.97;;;-0.37;99.57
76592;BME280;65481;47.600;19.682;2022-12-18T02:57:23;101823.66;;;-0.43;99.64
76592;BME280;65481;47.600;19.682;2022-12-18T03:02:41;101829.31;;;-0.38;99.34
76592;BME280;65481;47.600;19.682;2022-12-18T03:07:56;101832.50;;;-0.34;99.28
76592;BME280;65481;47.600;19.682;2022-12-18T03:13:32;101830.16;;;-0.37;99.35
76592;BME280;65481;47.600;19.682;2022-12-18T03:18:55;101840.75;;;-0.40;99.56
76592;BME280;65481;47.600;19.682;2022-12-18T03:23:58;101844.75;;;-0.48;99.78
76592;BME280;65481;47.600;19.682;2022-12-18T03:29:07;101854.63;;;-0.53;98.67
76592;BME280;65481;47.600;19.682;2022-12-18T03:34:21;101861.72;;;-0.55;97.50
76592;BME280;65481;47.600;19.682;2022-12-18T03:39:24;101860.88;;;-0.55;97.47
76592;BME280;65481;47.600;19.682;2022-12-18T03:49:52;101866.75;;;-0.65;97.16
76592;BME280;65481;47.600;19.682;2022-12-18T03:54:57;101880.59;;;-0.77;97.76
76592;BME280;65481;47.600;19.682;2022-12-18T04:00:11;101882.81;;;-0.84;98.12
76592;BME280;65481;47.600;19.682;2022-12-18T04:05:34;101893.75;;;-0.92;97.36
76592;BME280;65481;47.600;19.682;2022-12-18T04:10:36;101896.03;;;-1.00;97.05
76592;BME280;65481;47.600;19.682;2022-12-18T04:15:37;101905.13;;;-1.18;97.20
76592;BME280;65481;47.600;19.682;2022-12-18T04:20:38;101913.78;;;-1.31;97.71
76592;BME280;65481;47.600;19.682;2022-12-18T04:25:39;101914.72;;;-1.45;99.20
76592;BME280;65481;47.600;19.682;2022-12-18T04:30:39;101914.06;;;-1.60;99.31
76592;BME280;65481;47.600;19.682;2022-12-18T04:35:40;101932.06;;;-1.71;100.00
76592;BME280;65481;47.600;19.682;2022-12-18T04:40:41;101936.84;;;-1.78;100.00
76592;BME280;65481;47.600;19.682;2022-12-18T04:45:42;101947.91;;;-1.89;100.00
76592;BME280;65481;47.600;19.682;2022-12-18T04:50:43;101949.78;;;-1.91;100.00
76592;BME280;65481;47.600;19.682;2022-12-18T04:55:43;101968.13;;;-1.94;100.00
76592;BME280;65481;47.600;19.682;2022-12-18T05:00:44;101972.84;;;-2.01;100.00
76592;BME280;65481;47.600;19.682;2022-12-18T05:05:44;101980.19;;;-2.07;100.00
76592;BME280;65481;47.600;19.682;2022-12-18T05:10:45;101986.41;;;-2.10;100.00
76592;BME280;65481;47.600;19.682;2022-12-18T05:15:51;101983.09;;;-2.12;100.00
76592;BME280;65481;47.600;19.682;2022-12-18T05:20:53;101993.13;;;-2.07;100.00
76592;BME280;65481;47.600;19.682;2022-12-18T05:25:55;102001.09;;;-2.10;100.00
76592;BME280;65481;47.600;19.682;2022-12-18T05:30:59;101996.75;;;-2.10;100.00
76592;BME280;65481;47.600;19.682;2022-12-18T05:36:01;101997.25;;;-2.18;100.00
76592;BME280;65481;47.600;19.682;2022-12-18T05:41:02;101996.19;;;-2.28;100.00
76592;BME280;65481;47.600;19.682;2022-12-18T05:46:08;101998.13;;;-2.32;100.00
76592;BME280;65481;47.600;19.682;2022-12-18T05:51:14;102005.09;;;-2.32;100.00
76592;BME280;65481;47.600;19.682;2022-12-18T05:56:20;102015.63;;;-2.35;100.00
76592;BME280;65481;47.600;19.682;2022-12-18T06:01:23;102019.94;;;-2.36;100.00
76592;BME280;65481;47.600;19.682;2022-12-18T06:06:26;102021.09;;;-2.40;100.00
76592;BME280;65481;47.600;19.682;2022-12-18T06:11:27;102027.25;;;-2.42;100.00
76592;BME280;65481;47.600;19.682;2022-12-18T06:16:28;102032.84;;;-2.49;100.00
76592;BME280;65481;47.600;19.682;2022-12-18T06:21:30;102039.69;;;-2.48;100.00
76592;BME280;65481;47.600;19.682;2022-12-18T06:26:31;102043.13;;;-2.62;100.00
76592;BME280;65481;47.600;19.682;2022-12-18T06:31:32;102049.50;;;-2.67;100.00
76592;BME280;65481;47.600;19.682;2022-12-18T06:36:33;102054.69;;;-2.82;100.00
76592;BME280;65481;47.600;19.682;2022-12-18T06:41:34;102060.06;;;-2.85;100.00
76592;BME280;65481;47.600;19.682;2022-12-18T06:46:34;102078.41;;;-2.90;100.00
76592;BME280;65481;47.600;19.682;2022-12-18T06:51:35;102075.81;;;-2.90;100.00
76592;BME280;65481;47.600;19.682;2022-12-18T06:56:35;102082.47;;;-2.85;100.00
76592;BME280;65481;47.600;19.682;2022-12-18T07:01:36;102091.41;;;-2.77;100.00
76592;BME280;65481;47.600;19.682;2022-12-18T07:06:36;102105.34;;;-2.79;100.00
76592;BME280;65481;47.600;19.682;2022-12-18T07:11:37;102108.75;;;-2.79;100.00
76592;BME280;65481;47.600;19.682;2022-12-18T07:16:37;102126.75;;;-2.63;100.00
76592;BME280;65481;47.600;19.682;2022-12-18T07:21:38;102134.13;;;-2.42;100.00
76592;BME280;65481;47.600;19.682;2022-12-18T07:26:38;102135.69;;;-2.12;100.00
76592;BME280;65481;47.600;19.682;2022-12-18T07:31:39;102143.69;;;-1.75;100.00
76592;BME280;65481;47.600;19.682;2022-12-18T07:36:39;102146.66;;;-0.76;97.91
76592;BME280;65481;47.600;19.682;2022-12-18T07:41:40;102161.31;;;0.24;93.90
76592;BME280;65481;47.600;19.682;2022-12-18T07:46:46;102169.41;;;1.02;90.64
76592;BME280;65481;47.600;19.682;2022-12-18T07:51:46;102176.75;;;1.65;86.21
76592;BME280;65481;47.600;19.682;2022-12-18T07:56:49;102187.13;;;2.20;81.28
76592;BME280;65481;47.600;19.682;2022-12-18T08:01:53;102194.25;;;2.72;76.70
76592;BME280;65481;47.600;19.682;2022-12-18T08:06:56;102200.88;;;2.97;72.70
76592;BME280;65481;47.600;19.682;2022-12-18T08:11:59;102205.13;;;3.29;70.52
76592;BME280;65481;47.600;19.682;2022-12-18T08:16:59;102202.06;;;4.06;68.39
76592;BME280;65481;47.600;19.682;2022-12-18T08:22:00;102214.19;;;4.56;64.17
76592;BME280;65481;47.600;19.682;2022-12-18T08:27:00;102216.50;;;4.69;62.19
76592;BME280;65481;47.600;19.682;2022-12-18T08:32:01;102218.72;;;4.74;60.23
76592;BME280;65481;47.600;19.682;2022-12-18T08:37:04;102224.41;;;5.17;59.45
76592;BME280;65481;47.600;19.682;2022-12-18T08:42:04;102237.00;;;5.31;57.30
76592;BME280;65481;47.600;19.682;2022-12-18T08:47:23;102240.97;;;5.45;56.19
76592;BME280;65481;47.600;19.682;2022-12-18T08:52:26;102246.59;;;5.40;54.39
76592;BME280;65481;47.600;19.682;2022-12-18T08:57:26;102242.72;;;5.54;54.50
76592;BME280;65481;47.600;19.682;2022-12-18T09:02:27;102249.41;;;5.67;52.94
76592;BME280;65481;47.600;19.682;2022-12-18T09:07:27;102247.25;;;5.52;53.18
76592;BME280;65481;47.600;19.682;2022-12-18T09:12:28;102257.88;;;5.79;52.55
76592;BME280;65481;47.600;19.682;2022-12-18T09:17:28;102261.28;;;5.61;52.64
76592;BME280;65481;47.600;19.682;2022-12-18T09:22:28;102266.16;;;5.84;52.23
76592;BME280;65481;47.600;19.682;2022-12-18T09:27:29;102273.47;;;5.80;51.53
76592;BME280;65481;47.600;19.682;2022-12-18T09:32:30;102277.91;;;6.08;51.78
76592;BME280;65481;47.600;19.682;2022-12-18T09:37:30;102279.56;;;6.09;51.60
76592;BME280;65481;47.600;19.682;2022-12-18T09:42:31;102279.28;;;6.84;50.71
76592;BME280;65481;47.600;19.682;2022-12-18T09:47:36;102278.66;;;6.90;50.45
76592;BME280;65481;47.600;19.682;2022-12-18T09:52:43;102272.75;;;7.15;49.77
76592;BME280;65481;47.600;19.682;2022-12-18T09:57:49;102272.09;;;7.39;49.95
76592;BME280;65481;47.600;19.682;2022-12-18T10:03:12;102275.69;;;7.72;48.49
76592;BME280;65481;47.600;19.682;2022-12-18T10:14:28;102266.34;;;7.78;46.95
76592;BME280;65481;47.600;19.682;2022-12-18T10:24:42;102256.66;;;7.87;45.98
76592;BME280;65481;47.600;19.682;2022-12-18T10:29:47;102251.97;;;8.15;44.94
76592;BME280;65481;47.600;19.682;2022-12-18T10:34:50;102249.63;;;7.87;45.05
76592;BME280;65481;47.600;19.682;2022-12-18T10:40:13;102244.09;;;8.07;44.75
76592;BME280;65481;47.600;19.682;2022-12-18T10:45:16;102235.50;;;7.97;44.66
76592;BME280;65481;47.600;19.682;2022-12-18T10:50:28;102240.66;;;8.23;44.79
76592;BME280;65481;47.600;19.682;2022-12-18T10:55:39;102242.69;;;8.54;44.72
76592;BME280;65481;47.600;19.682;2022-12-18T11:00:44;102249.06;;;8.27;44.70
76592;BME280;65481;47.600;19.682;2022-12-18T11:05:44;102243.56;;;7.95;45.16
76592;BME280;65481;47.600;19.682;2022-12-18T11:10:46;102240.94;;;7.95;45.29
76592;BME280;65481;47.600;19.682;2022-12-18T11:15:47;102251.00;;;8.16;45.29
76592;BME280;65481;47.600;19.682;2022-12-18T11:20:57;102243.47;;;8.38;45.23
76592;BME280;65481;47.600;19.682;2022-12-18T11:26:02;102236.56;;;8.29;45.16
76592;BME280;65481;47.600;19.682;2022-12-18T11:31:29;102233.22;;;8.02;46.13
76592;BME280;65481;47.600;19.682;2022-12-18T11:36:39;102234.63;;;7.71;46.76
76592;BME280;65481;47.600;19.682;2022-12-18T11:41:52;102233.72;;;7.20;47.78
76592;BME280;65481;47.600;19.682;2022-12-18T11:47:34;102239.03;;;7.28;47.62
76592;BME280;65481;47.600;19.682;2022-12-18T11:52:40;102232.56;;;6.88;49.45
76592;BME280;65481;47.600;19.682;2022-12-18T11:58:10;102236.28;;;6.85;48.66
76592;BME280;65481;47.600;19.682;2022-12-18T12:03:24;102215.31;;;6.85;48.50
76592;BME280;65481;47.600;19.682;2022-12-18T12:08:49;102219.16;;;6.73;49.98
76592;BME280;65481;47.600;19.682;2022-12-18T12:14:22;102219.84;;;6.75;49.57
76592;BME280;65481;47.600;19.682;2022-12-18T12:35:55;102216.44;;;6.38;51.41
76592;BME280;65481;47.600;19.682;2022-12-18T12:41:03;102212.53;;;6.24;52.35
76592;BME280;65481;47.600;19.682;2022-12-18T12:46:07;102217.25;;;6.02;52.80
76592;BME280;65481;47.600;19.682;2022-12-18T12:56:21;102236.81;;;5.80;54.07
76592;BME280;65481;47.600;19.682;2022-12-18T13:01:39;102240.31;;;5.61;54.13
76592;BME280;65481;47.600;19.682;2022-12-18T13:06:50;102249.28;;;5.68;54.47
76592;BME280;65481;47.600;19.682;2022-12-18T13:11:53;102251.31;;;5.74;54.80
76592;BME280;65481;47.600;19.682;2022-12-18T13:22:31;102267.72;;;5.39;55.88
76592;BME280;65481;47.600;19.682;2022-12-18T13:32:45;102271.97;;;4.82;56.06
76592;BME280;65481;47.600;19.682;2022-12-18T13:37:51;102275.81;;;4.49;57.62
76592;BME280;65481;47.600;19.682;2022-12-18T13:42:54;102283.59;;;4.09;58.29
76592;BME280;65481;47.600;19.682;2022-12-18T13:48:18;102293.84;;;3.82;59.83
76592;BME280;65481;47.600;19.682;2022-12-18T13:53:28;102302.84;;;3.68;60.46
76592;BME280;65481;47.600;19.682;2022-12-18T13:58:30;102303.13;;;3.43;60.51
76592;BME280;65481;47.600;19.682;2022-12-18T14:03:30;102308.94;;;3.26;60.77
76592;BME280;65481;47.600;19.682;2022-12-18T14:08:39;102308.09;;;3.04;62.38
76592;BME280;65481;47.600;19.682;2022-12-18T14:13:41;102310.69;;;2.83;63.29
76592;BME280;65481;47.600;19.682;2022-12-18T14:23:46;102314.81;;;2.53;64.48
76592;BME280;65481;47.600;19.682;2022-12-18T14:28:47;102317.69;;;2.38;65.03
76592;BME280;65481;47.600;19.682;2022-12-18T14:33:47;102315.59;;;2.21;65.83
76592;BME280;65481;47.600;19.682;2022-12-18T14:38:55;102310.19;;;2.01;66.58
76592;BME280;65481;47.600;19.682;2022-12-18T14:44:05;102311.25;;;1.87;66.88
76592;BME280;65481;47.600;19.682;2022-12-18T14:54:21;102328.50;;;1.54;68.65
76592;BME280;65481;47.600;19.682;2022-12-18T14:59:23;102337.00;;;1.45;68.78
76592;BME280;65481;47.600;19.682;2022-12-18T15:04:36;102348.31;;;1.32;69.73
76592;BME280;65481;47.600;19.682;2022-12-18T15:09:42;102349.59;;;1.27;70.19
76592;BME280;65481;47.600;19.682;2022-12-18T15:14:47;102359.63;;;1.20;70.57
76592;BME280;65481;47.600;19.682;2022-12-18T15:19:51;102362.78;;;1.12;71.51
76592;BME280;65481;47.600;19.682;2022-12-18T15:24:54;102376.00;;;1.09;71.51
76592;BME280;65481;47.600;19.682;2022-12-18T15:35:22;102376.06;;;0.96;72.98
76592;BME280;65481;47.600;19.682;2022-12-18T15:40:23;102390.84;;;0.96;72.94
76592;BME280;65481;47.600;19.682;2022-12-18T15:45:24;102388.59;;;0.91;73.61
76592;BME280;65481;47.600;19.682;2022-12-18T15:50:25;102391.28;;;0.89;73.60
76592;BME280;65481;47.600;19.682;2022-12-18T15:55:27;102392.78;;;0.81;74.35
76592;BME280;65481;47.600;19.682;2022-12-18T16:00:46;102415.66;;;0.75;74.60
76592;BME280;65481;47.600;19.682;2022-12-18T16:05:47;102422.03;;;0.71;75.25
76592;BME280;65481;47.600;19.682;2022-12-18T16:10:48;102422.47;;;0.65;75.60
76592;BME280;65481;47.600;19.682;2022-12-18T16:15:48;102428.81;;;0.48;77.22
76592;BME280;65481;47.600;19.682;2022-12-18T16:20:49;102443.72;;;0.33;77.37
76592;BME280;65481;47.600;19.682;2022-12-18T16:25:50;102453.91;;;0.23;78.46
76592;BME280;65481;47.600;19.682;2022-12-18T16:30:52;102455.25;;;0.16;79.22
76592;BME280;65481;47.600;19.682;2022-12-18T16:35:52;102452.88;;;0.00;80.55
76592;BME280;65481;47.600;19.682;2022-12-18T16:40:53;102457.09;;;0.01;80.66
76592;BME280;65481;47.600;19.682;2022-12-18T16:46:32;102453.06;;;-0.03;80.77
76592;BME280;65481;47.600;19.682;2022-12-18T16:51:34;102454.00;;;-0.04;80.65
76592;BME280;65481;47.600;19.682;2022-12-18T16:56:36;102469.22;;;-0.12;81.60
76592;BME280;65481;47.600;19.682;2022-12-18T17:01:37;102469.22;;;-0.12;82.01
76592;BME280;65481;47.600;19.682;2022-12-18T17:06:42;102471.41;;;-0.19;82.70
76592;BME280;65481;47.600;19.682;2022-12-18T17:11:44;102478.53;;;-0.36;84.08
76592;BME280;65481;47.600;19.682;2022-12-18T17:16:46;102486.03;;;-0.58;86.29
76592;BME280;65481;47.600;19.682;2022-12-18T17:21:48;102489.78;;;-0.77;88.78
76592;BME280;65481;47.600;19.682;2022-12-18T17:26:50;102493.34;;;-0.93;91.13
76592;BME280;65481;47.600;19.682;2022-12-18T17:31:51;102477.38;;;-0.99;92.24
76592;BME280;65481;47.600;19.682;2022-12-18T17:36:52;102487.47;;;-1.09;94.60
76592;BME280;65481;47.600;19.682;2022-12-18T17:41:53;102480.91;;;-1.15;95.96
76592;BME280;65481;47.600;19.682;2022-12-18T17:46:56;102489.94;;;-1.08;96.89
76592;BME280;65481;47.600;19.682;2022-12-18T17:51:57;102487.66;;;-1.12;99.09
76592;BME280;65481;47.600;19.682;2022-12-18T17:56:57;102492.00;;;-1.13;100.00
76592;BME280;65481;47.600;19.682;2022-12-18T18:01:59;102493.94;;;-1.16;100.00
76592;BME280;65481;47.600;19.682;2022-12-18T18:06:59;102498.19;;;-1.15;100.00
76592;BME280;65481;47.600;19.682;2022-12-18T18:12:01;102495.59;;;-1.15;100.00
76592;BME280;65481;47.600;19.682;2022-12-18T18:17:20;102494.69;;;-1.14;100.00
76592;BME280;65481;47.600;19.682;2022-12-18T18:22:24;102489.31;;;-1.11;100.00
76592;BME280;65481;47.600;19.682;2022-12-18T18:27:25;102500.78;;;-1.15;100.00
76592;BME280;65481;47.600;19.682;2022-12-18T18:32:26;102492.50;;;-1.20;100.00
76592;BME280;65481;47.600;19.682;2022-12-18T18:37:27;102498.84;;;-1.26;100.00
76592;BME280;65481;47.600;19.682;2022-12-18T18:42:29;102496.25;;;-1.26;100.00
76592;BME280;65481;47.600;19.682;2022-12-18T18:47:29;102503.22;;;-1.27;100.00
76592;BME280;65481;47.600;19.682;2022-12-18T18:52:31;102515.72;;;-1.33;100.00
76592;BME280;65481;47.600;19.682;2022-12-18T18:57:33;102520.88;;;-1.33;100.00
76592;BME280;65481;47.600;19.682;2022-12-18T19:02:33;102530.41;;;-1.34;100.00
76592;BME280;65481;47.600;19.682;2022-12-18T19:07:34;102535.69;;;-1.35;100.00
76592;BME280;65481;47.600;19.682;2022-12-18T19:12:34;102543.00;;;-1.28;100.00
76592;BME280;65481;47.600;19.682;2022-12-18T19:17:54;102548.56;;;-1.19;100.00
76592;BME280;65481;47.600;19.682;2022-12-18T19:22:55;102564.09;;;-1.19;100.00
76592;BME280;65481;47.600;19.682;2022-12-18T19:27:58;102567.06;;;-1.11;100.00
76592;BME280;65481;47.600;19.682;2022-12-18T19:32:59;102567.91;;;-1.11;100.00
76592;BME280;65481;47.600;19.682;2022-12-18T19:38:00;102579.94;;;-1.10;100.00
76592;BME280;65481;47.600;19.682;2022-12-18T19:43:01;102588.81;;;-1.14;100.00
76592;BME280;65481;47.600;19.682;2022-12-18T19:48:05;102593.13;;;-1.14;100.00
76592;BME280;65481;47.600;19.682;2022-12-18T19:53:06;102597.97;;;-1.08;100.00
76592;BME280;65481;47.600;19.682;2022-12-18T19:58:08;102611.56;;;-1.04;100.00
76592;BME280;65481;47.600;19.682;2022-12-18T20:03:09;102613.22;;;-1.03;100.00
76592;BME280;65481;47.600;19.682;2022-12-18T20:08:10;102612.31;;;-1.02;100.00
76592;BME280;65481;47.600;19.682;2022-12-18T20:13:10;102626.75;;;-0.98;100.00
76592;BME280;65481;47.600;19.682;2022-12-18T20:18:11;102621.28;;;-0.94;100.00
76592;BME280;65481;47.600;19.682;2022-12-18T20:23:19;102604.00;;;-0.93;100.00
76592;BME280;65481;47.600;19.682;2022-12-18T20:28:22;102617.13;;;-0.96;100.00
76592;BME280;65481;47.600;19.682;2022-12-18T20:33:23;102610.09;;;-0.94;100.00
76592;BME280;65481;47.600;19.682;2022-12-18T20:38:24;102613.03;;;-0.86;100.00
76592;BME280;65481;47.600;19.682;2022-12-18T20:43:25;102614.88;;;-0.88;100.00
76592;BME280;65481;47.600;19.682;2022-12-18T20:48:27;102619.81;;;-0.83;100.00
76592;BME280;65481;47.600;19.682;2022-12-18T20:53:29;102613.78;;;-0.84;100.00
76592;BME280;65481;47.600;19.682;2022-12-18T20:58:30;102624.59;;;-0.77;100.00
76592;BME280;65481;47.600;19.682;2022-12-18T21:03:30;102628.88;;;-0.76;100.00
76592;BME280;65481;47.600;19.682;2022-12-18T21:08:31;102626.19;;;-0.74;100.00
76592;BME280;65481;47.600;19.682;2022-12-18T21:13:32;102629.78;;;-0.77;100.00
76592;BME280;65481;47.600;19.682;2022-12-18T21:18:32;102635.53;;;-0.72;100.00
76592;BME280;65481;47.600;19.682;2022-12-18T21:23:33;102630.25;;;-0.70;100.00
76592;BME280;65481;47.600;19.682;2022-12-18T21:28:34;102635.91;;;-0.78;100.00
76592;BME280;65481;47.600;19.682;2022-12-18T21:33:35;102633.13;;;-0.75;100.00
76592;BME280;65481;47.600;19.682;2022-12-18T21:38:35;102632.50;;;-0.79;100.00
76592;BME280;65481;47.600;19.682;2022-12-18T21:43:36;102628.06;;;-0.77;100.00
76592;BME280;65481;47.600;19.682;2022-12-18T21:48:55;102627.47;;;-0.67;100.00
76592;BME280;65481;47.600;19.682;2022-12-18T21:53:56;102613.88;;;-0.71;100.00
76592;BME280;65481;47.600;19.682;2022-12-18T21:58:56;102610.66;;;-0.74;100.00
76592;BME280;65481;47.600;19.682;2022-12-18T22:03:57;102625.16;;;-0.72;100.00
76592;BME280;65481;47.600;19.682;2022-12-18T22:08:57;102618.13;;;-0.70;100.00
76592;BME280;65481;47.600;19.682;2022-12-18T22:13:58;102613.94;;;-0.72;100.00
76592;BME280;65481;47.600;19.682;2022-12-18T22:18:58;102607.19;;;-0.75;100.00
76592;BME280;65481;47.600;19.682;2022-12-18T22:24:00;102589.78;;;-0.73;100.00
76592;BME280;65481;47.600;19.682;2022-12-18T22:29:01;102599.34;;;-0.73;100.00
76592;BME280;65481;47.600;19.682;2022-12-18T22:34:20;102595.28;;;-0.78;100.00
76592;BME280;65481;47.600;19.682;2022-12-18T22:39:26;102599.78;;;-0.81;100.00
76592;BME280;65481;47.600;19.682;2022-12-18T22:44:26;102595.47;;;-0.81;100.00
76592;BME280;65481;47.600;19.682;2022-12-18T22:49:27;102608.13;;;-0.76;100.00
76592;BME280;65481;47.600;19.682;2022-12-18T22:54:27;102618.13;;;-0.70;100.00
76592;BME280;65481;47.600;19.682;2022-12-18T22:59:28;102624.31;;;-0.72;100.00
76592;BME280;65481;47.600;19.682;2022-12-18T23:04:28;102624.88;;;-0.67;100.00
76592;BME280;65481;47.600;19.682;2022-12-18T23:09:29;102621.06;;;-0.62;100.00
76592;BME280;65481;47.600;19.682;2022-12-18T23:14:29;102620.06;;;-0.59;100.00
76592;BME280;65481;47.600;19.682;2022-12-18T23:19:30;102618.84;;;-0.53;100.00
76592;BME280;65481;47.600;19.682;2022-12-18T23:24:30;102634.31;;;-0.52;100.00
76592;BME280;65481;47.600;19.682;2022-12-18T23:29:31;102617.81;;;-0.51;100.00
76592;BME280;65481;47.600;19.682;2022-12-18T23:34:31;102619.78;;;-0.54;100.00
76592;BME280;65481;47.600;19.682;2022-12-18T23:39:32;102627.56;;;-0.54;100.00
76592;BME280;65481;47.600;19.682;2022-12-18T23:44:32;102627.19;;;-0.48;100.00
76592;BME280;65481;47.600;19.682;2022-12-18T23:49:33;102632.16;;;-0.45;100.00
76592;BME280;65481;47.600;19.682;2022-12-18T23:54:33;102632.91;;;-0.43;100.00
76592;BME280;65481;47.600;19.682;2022-12-18T23:59:34;102631.91;;;-0.40;100.00
